sensor_id;sensor_type;location;lat;lon;timestamp;P1;P2;P0
66336;PMS1003;53139;45.576;5.304;2022-10-16T00:00:18;3.50;3.50;3.00
66336;PMS1003;53139;45.576;5.304;2022-10-16T00:03:18;5.75;4.00;4.00
66336;PMS1003;53139;45.576;5.304;2022-10-16T00:06:19;4.00;3.75;3.25
66336;PMS1003;53139;45.576;5.304;2022-10-16T00:09:21;3.50;3.25;2.75
66336;PMS1003;53139;45.576;5.304;2022-10-16T00:12:22;6.00;5.00;3.00
66336;PMS1003;53139;45.576;5.304;2022-10-16T00:15:22;7.00;4.00;3.00
66336;PMS1003;53139;45.576;5.304;2022-10-16T00:18:23;4.00;4.00;3.00
66336;PMS1003;53139;45.576;5.304;2022-10-16T00:21:25;4.00;4.00;3.00
66336;PMS1003;53139;45.576;5.304;2022-10-16T00:24:27;5.50;4.00;4.00
66336;PMS1003;53139;45.576;5.304;2022-10-16T00:27:28;3.00;3.00;2.00
66336;PMS1003;53139;45.576;5.304;2022-10-16T00:30:28;4.50;3.75;3.00
66336;PMS1003;53139;45.576;5.304;2022-10-16T00:33:29;3.50;3.50;3.00
66336;PMS1003;53139;45.576;5.304;2022-10-16T00:36:29;4.50;4.50;4.00
66336;PMS1003;53139;45.576;5.304;2022-10-16T00:39:30;5.75;4.00;3.00
66336;PMS1003;53139;45.576;5.304;2022-10-16T00:42:31;4.75;4.75;3.25
66336;PMS1003;53139;45.576;5.304;2022-10-16T00:45:31;5.25;4.50;3.25
66336;PMS1003;53139;45.576;5.304;2022-10-16T00:48:31;5.00;4.00;3.00
66336;PMS1003;53139;45.576;5.304;2022-10-16T00:51:49;5.25;4.50;4.00
66336;PMS1003;53139;45.576;5.304;2022-10-16T00:54:51;3.00;2.00;1.50
66336;PMS1003;53139;45.576;5.304;2022-10-16T00:57:53;3.00;3.00;1.50
66336;PMS1003;53139;45.576;5.304;2022-10-16T01:00:54;4.00;4.00;3.00
66336;PMS1003;53139;45.576;5.304;2022-10-16T01:03:54;5.50;4.50;3.75
66336;PMS1003;53139;45.576;5.304;2022-10-16T01:06:58;7.25;5.00;4.00
66336;PMS1003;53139;45.576;5.304;2022-10-16T01:10:06;6.25;4.25;3.00
66336;PMS1003;53139;45.576;5.304;2022-10-16T01:16:13;4.00;4.00;3.00
66336;PMS1003;53139;45.576;5.304;2022-10-16T01:36:47;7.00;6.00;4.00
66336;PMS1003;53139;45.576;5.304;2022-10-16T01:39:53;6.25;5.00;4.25
66336;PMS1003;53139;45.576;5.304;2022-10-16T01:46:22;5.00;5.00;4.00
66336;PMS1003;53139;45.576;5.304;2022-10-16T01:49:25;5.75;5.00;3.00
66336;PMS1003;53139;45.576;5.304;2022-10-16T01:52:29;5.00;5.00;5.00
66336;PMS1003;53139;45.576;5.304;2022-10-16T01:55:35;5.25;5.25;4.50
66336;PMS1003;53139;45.576;5.304;2022-10-16T01:58:44;5.75;4.00;3.00
66336;PMS1003;53139;45.576;5.304;2022-10-16T02:01:50;6.25;5.00;4.25
66336;PMS1003;53139;45.576;5.304;2022-10-16T02:08:45;4.50;4.50;3.50
66336;PMS1003;53139;45.576;5.304;2022-10-16T02:11:46;6.00;6.00;4.50
66336;PMS1003;53139;45.576;5.304;2022-10-16T02:14:49;5.75;4.25;3.25
66336;PMS1003;53139;45.576;5.304;2022-10-16T02:17:49;4.00;4.00;3.00
66336;PMS1003;53139;45.576;5.304;2022-10-16T02:20:53;5.50;4.25;3.00
66336;PMS1003;53139;45.576;5.304;2022-10-16T02:27:34;5.00;5.00;4.75
66336;PMS1003;53139;45.576;5.304;2022-10-16T02:30:48;5.25;5.25;4.00
66336;PMS1003;53139;45.576;5.304;2022-10-16T02:33:57;5.00;5.00;4.00
66336;PMS1003;53139;45.576;5.304;2022-10-16T02:36:59;6.50;6.50;5.00
66336;PMS1003;53139;45.576;5.304;2022-10-16T02:40:04;5.00;5.00;4.25
66336;PMS1003;53139;45.576;5.304;2022-10-16T02:43:06;6.25;6.00;4.75
66336;PMS1003;53139;45.576;5.304;2022-10-16T02:46:06;6.25;5.50;4.00
66336;PMS1003;53139;45.576;5.304;2022-10-16T02:49:07;5.50;5.50;4.75
66336;PMS1003;53139;45.576;5.304;2022-10-16T02:52:07;6.00;6.00;5.25
66336;PMS1003;53139;45.576;5.304;2022-10-16T02:55:07;8.00;6.00;5.00
66336;PMS1003;53139;45.576;5.304;2022-10-16T02:58:08;6.00;6.00;4.50
66336;PMS1003;53139;45.576;5.304;2022-10-16T03:01:09;10.25;6.00;5.00
66336;PMS1003;53139;45.576;5.304;2022-10-16T03:04:09;6.00;4.75;3.75
66336;PMS1003;53139;45.576;5.304;2022-10-16T03:07:10;10.00;7.00;5.00
66336;PMS1003;53139;45.576;5.304;2022-10-16T03:10:10;6.00;3.00;2.75
66336;PMS1003;53139;45.576;5.304;2022-10-16T03:13:10;7.25;6.00;5.00
66336;PMS1003;53139;45.576;5.304;2022-10-16T03:16:11;8.00;6.00;5.00
66336;PMS1003;53139;45.576;5.304;2022-10-16T03:19:11;7.00;6.00;5.25
66336;PMS1003;53139;45.576;5.304;2022-10-16T03:22:11;8.25;5.50;4.50
66336;PMS1003;53139;45.576;5.304;2022-10-16T03:25:12;4.00;4.00;3.50
66336;PMS1003;53139;45.576;5.304;2022-10-16T03:28:12;8.25;8.00;5.00
66336;PMS1003;53139;45.576;5.304;2022-10-16T03:31:13;6.50;6.00;5.00
66336;PMS1003;53139;45.576;5.304;2022-10-16T03:34:13;10.50;7.00;4.75
66336;PMS1003;53139;45.576;5.304;2022-10-16T03:37:13;6.25;6.00;5.00
66336;PMS1003;53139;45.576;5.304;2022-10-16T03:40:14;7.25;6.00;4.75
66336;PMS1003;53139;45.576;5.304;2022-10-16T03:43:15;6.00;6.00;5.50
66336;PMS1003;53139;45.576;5.304;2022-10-16T03:46:15;7.50;6.25;5.00
66336;PMS1003;53139;45.576;5.304;2022-10-16T03:49:15;5.75;5.00;5.00
66336;PMS1003;53139;45.576;5.304;2022-10-16T03:52:16;8.25;8.00;6.25
66336;PMS1003;53139;45.576;5.304;2022-10-16T03:55:16;9.00;6.00;5.00
66336;PMS1003;53139;45.576;5.304;2022-10-16T03:58:17;7.00;7.00;5.75
66336;PMS1003;53139;45.576;5.304;2022-10-16T04:01:17;7.00;6.50;5.00
66336;PMS1003;53139;45.576;5.304;2022-10-16T04:04:18;8.50;7.50;6.00
66336;PMS1003;53139;45.576;5.304;2022-10-16T04:07:18;7.50;6.00;5.00
66336;PMS1003;53139;45.576;5.304;2022-10-16T04:10:18;8.33;6.33;5.00
66336;PMS1003;53139;45.576;5.304;2022-10-16T04:13:19;5.50;5.50;4.50
66336;PMS1003;53139;45.576;5.304;2022-10-16T04:16:19;9.75;6.25;5.00
66336;PMS1003;53139;45.576;5.304;2022-10-16T04:19:20;5.75;5.00;3.25
66336;PMS1003;53139;45.576;5.304;2022-10-16T04:22:20;1.00;1.00;1.00
66336;PMS1003;53139;45.576;5.304;2022-10-16T04:25:20;7.25;7.00;5.00
66336;PMS1003;53139;45.576;5.304;2022-10-16T04:28:21;8.00;7.00;5.75
66336;PMS1003;53139;45.576;5.304;2022-10-16T04:31:21;7.00;6.00;4.25
66336;PMS1003;53139;45.576;5.304;2022-10-16T04:34:22;8.75;8.25;6.00
66336;PMS1003;53139;45.576;5.304;2022-10-16T04:37:23;7.75;6.50;6.00
66336;PMS1003;53139;45.576;5.304;2022-10-16T04:40:26;8.00;7.25;5.75
66336;PMS1003;53139;45.576;5.304;2022-10-16T04:43:26;7.00;7.00;5.00
66336;PMS1003;53139;45.576;5.304;2022-10-16T04:46:27;7.75;7.75;6.50
66336;PMS1003;53139;45.576;5.304;2022-10-16T04:49:27;5.25;4.00;4.00
66336;PMS1003;53139;45.576;5.304;2022-10-16T04:52:28;8.50;8.50;6.00
66336;PMS1003;53139;45.576;5.304;2022-10-16T04:55:28;10.25;8.00;6.00
66336;PMS1003;53139;45.576;5.304;2022-10-16T04:58:29;7.00;6.00;4.50
66336;PMS1003;53139;45.576;5.304;2022-10-16T05:01:29;6.00;6.00;4.00
66336;PMS1003;53139;45.576;5.304;2022-10-16T05:04:29;8.00;7.67;5.33
66336;PMS1003;53139;45.576;5.304;2022-10-16T05:07:30;7.50;7.00;5.00
66336;PMS1003;53139;45.576;5.304;2022-10-16T05:10:30;9.00;8.00;5.25
66336;PMS1003;53139;45.576;5.304;2022-10-16T05:13:31;7.75;7.00;6.00
66336;PMS1003;53139;45.576;5.304;2022-10-16T05:16:31;11.25;8.00;6.00
66336;PMS1003;53139;45.576;5.304;2022-10-16T05:19:31;9.00;8.00;6.00
66336;PMS1003;53139;45.576;5.304;2022-10-16T05:22:32;8.75;6.75;6.00
66336;PMS1003;53139;45.576;5.304;2022-10-16T05:25:32;7.00;7.00;6.00
66336;PMS1003;53139;45.576;5.304;2022-10-16T05:28:33;9.25;8.50;6.25
66336;PMS1003;53139;45.576;5.304;2022-10-16T05:31:33;12.75;10.25;6.25
66336;PMS1003;53139;45.576;5.304;2022-10-16T05:34:34;11.25;9.50;7.25
66336;PMS1003;53139;45.576;5.304;2022-10-16T05:37:34;8.75;8.00;6.00
66336;PMS1003;53139;45.576;5.304;2022-10-16T05:40:34;11.00;9.00;7.00
66336;PMS1003;53139;45.576;5.304;2022-10-16T05:43:35;7.75;6.25;4.25
66336;PMS1003;53139;45.576;5.304;2022-10-16T05:46:35;8.00;8.00;6.00
66336;PMS1003;53139;45.576;5.304;2022-10-16T05:49:36;6.00;5.50;4.00
66336;PMS1003;53139;45.576;5.304;2022-10-16T05:52:36;11.00;6.00;4.25
66336;PMS1003;53139;45.576;5.304;2022-10-16T05:55:36;8.75;7.00;6.00
66336;PMS1003;53139;45.576;5.304;2022-10-16T05:58:37;9.25;6.00;5.00
66336;PMS1003;53139;45.576;5.304;2022-10-16T06:01:40;7.50;6.25;5.00
66336;PMS1003;53139;45.576;5.304;2022-10-16T06:04:40;7.00;6.00;5.25
66336;PMS1003;53139;45.576;5.304;2022-10-16T06:07:41;8.25;8.25;6.00
66336;PMS1003;53139;45.576;5.304;2022-10-16T06:10:41;8.50;7.00;5.25
66336;PMS1003;53139;45.576;5.304;2022-10-16T06:13:43;9.25;8.00;6.00
66336;PMS1003;53139;45.576;5.304;2022-10-16T06:16:45;7.00;7.00;5.00
66336;PMS1003;53139;45.576;5.304;2022-10-16T06:19:46;10.00;7.00;5.67
66336;PMS1003;53139;45.576;5.304;2022-10-16T06:22:46;9.00;7.25;5.25
66336;PMS1003;53139;45.576;5.304;2022-10-16T06:25:46;8.00;7.00;5.00
66336;PMS1003;53139;45.576;5.304;2022-10-16T06:28:47;13.00;8.00;6.33
66336;PMS1003;53139;45.576;5.304;2022-10-16T06:31:48;8.00;8.00;6.00
66336;PMS1003;53139;45.576;5.304;2022-10-16T06:34:48;6.50;5.75;3.75
66336;PMS1003;53139;45.576;5.304;2022-10-16T06:37:48;8.25;7.25;6.00
66336;PMS1003;53139;45.576;5.304;2022-10-16T06:40:49;8.50;6.75;5.75
66336;PMS1003;53139;45.576;5.304;2022-10-16T06:43:49;7.00;7.00;5.00
66336;PMS1003;53139;45.576;5.304;2022-10-16T06:46:50;10.25;7.25;5.75
66336;PMS1003;53139;45.576;5.304;2022-10-16T06:49:51;10.25;8.25;6.00
66336;PMS1003;53139;45.576;5.304;2022-10-16T06:52:51;9.00;8.00;6.00
66336;PMS1003;53139;45.576;5.304;2022-10-16T06:55:51;7.00;7.00;5.25
66336;PMS1003;53139;45.576;5.304;2022-10-16T06:58:52;7.00;7.00;4.50
66336;PMS1003;53139;45.576;5.304;2022-10-16T07:01:53;7.25;7.00;5.50
66336;PMS1003;53139;45.576;5.304;2022-10-16T07:04:53;5.00;4.25;3.00
66336;PMS1003;53139;45.576;5.304;2022-10-16T07:07:54;6.25;6.00;5.00
66336;PMS1003;53139;45.576;5.304;2022-10-16T07:11:01;8.00;6.33;5.00
66336;PMS1003;53139;45.576;5.304;2022-10-16T07:14:03;6.00;6.00;5.00
66336;PMS1003;53139;45.576;5.304;2022-10-16T07:17:03;7.75;5.50;3.50
66336;PMS1003;53139;45.576;5.304;2022-10-16T07:20:04;8.50;6.50;5.00
66336;PMS1003;53139;45.576;5.304;2022-10-16T07:23:04;6.00;6.00;5.50
66336;PMS1003;53139;45.576;5.304;2022-10-16T07:26:05;7.00;7.00;5.50
66336;PMS1003;53139;45.576;5.304;2022-10-16T07:29:07;9.00;8.00;5.00
66336;PMS1003;53139;45.576;5.304;2022-10-16T07:32:15;7.75;5.50;4.25
66336;PMS1003;53139;45.576;5.304;2022-10-16T07:35:15;8.75;5.50;4.00
66336;PMS1003;53139;45.576;5.304;2022-10-16T07:38:16;7.00;5.75;4.00
66336;PMS1003;53139;45.576;5.304;2022-10-16T07:41:17;6.25;6.00;4.75
66336;PMS1003;53139;45.576;5.304;2022-10-16T07:44:19;8.75;6.50;5.50
66336;PMS1003;53139;45.576;5.304;2022-10-16T07:47:19;7.25;6.75;5.75
66336;PMS1003;53139;45.576;5.304;2022-10-16T07:50:20;7.00;6.25;5.00
66336;PMS1003;53139;45.576;5.304;2022-10-16T07:53:20;7.00;6.75;5.25
66336;PMS1003;53139;45.576;5.304;2022-10-16T07:56:21;6.00;5.00;3.50
66336;PMS1003;53139;45.576;5.304;2022-10-16T07:59:22;7.00;4.25;3.00
66336;PMS1003;53139;45.576;5.304;2022-10-16T08:02:22;5.50;5.50;4.00
66336;PMS1003;53139;45.576;5.304;2022-10-16T08:05:23;3.00;2.00;2.00
66336;PMS1003;53139;45.576;5.304;2022-10-16T08:08:23;4.00;4.00;3.00
66336;PMS1003;53139;45.576;5.304;2022-10-16T08:11:23;5.00;5.00;3.00
66336;PMS1003;53139;45.576;5.304;2022-10-16T08:14:24;4.50;2.75;2.00
66336;PMS1003;53139;45.576;5.304;2022-10-16T08:17:24;5.50;4.00;3.00
66336;PMS1003;53139;45.576;5.304;2022-10-16T08:20:25;4.25;4.25;3.25
66336;PMS1003;53139;45.576;5.304;2022-10-16T08:23:27;3.75;3.00;2.00
66336;PMS1003;53139;45.576;5.304;2022-10-16T08:26:28;5.00;4.00;4.00
66336;PMS1003;53139;45.576;5.304;2022-10-16T08:29:28;5.00;5.00;3.75
66336;PMS1003;53139;45.576;5.304;2022-10-16T08:32:28;4.00;4.00;2.00
66336;PMS1003;53139;45.576;5.304;2022-10-16T08:35:29;5.00;3.75;3.00
66336;PMS1003;53139;45.576;5.304;2022-10-16T08:38:29;2.00;2.00;2.00
66336;PMS1003;53139;45.576;5.304;2022-10-16T08:51:44;4.50;3.00;2.00
66336;PMS1003;53139;45.576;5.304;2022-10-16T08:54:47;2.50;2.50;2.00
66336;PMS1003;53139;45.576;5.304;2022-10-16T08:57:52;3.75;2.50;2.00
66336;PMS1003;53139;45.576;5.304;2022-10-16T09:00:54;4.00;2.25;2.00
66336;PMS1003;53139;45.576;5.304;2022-10-16T09:17:03;4.50;2.50;2.00
66336;PMS1003;53139;45.576;5.304;2022-10-16T09:20:19;3.00;3.00;3.00
66336;PMS1003;53139;45.576;5.304;2022-10-16T09:23:28;2.00;2.00;2.00
66336;PMS1003;53139;45.576;5.304;2022-10-16T09:26:30;3.25;3.25;2.00
66336;PMS1003;53139;45.576;5.304;2022-10-16T09:29:30;2.00;2.00;2.00
66336;PMS1003;53139;45.576;5.304;2022-10-16T09:32:30;3.00;3.00;2.00
66336;PMS1003;53139;45.576;5.304;2022-10-16T09:35:43;3.25;3.25;3.00
66336;PMS1003;53139;45.576;5.304;2022-10-16T09:38:45;3.00;3.00;2.25
66336;PMS1003;53139;45.576;5.304;2022-10-16T09:41:45;4.00;4.00;3.00
66336;PMS1003;53139;45.576;5.304;2022-10-16T09:44:49;3.00;3.00;2.75
66336;PMS1003;53139;45.576;5.304;2022-10-16T09:47:51;3.25;3.25;2.25
66336;PMS1003;53139;45.576;5.304;2022-10-16T09:51:02;3.50;3.50;3.00
66336;PMS1003;53139;45.576;5.304;2022-10-16T09:57:10;4.00;4.00;3.25
66336;PMS1003;53139;45.576;5.304;2022-10-16T10:00:15;4.00;2.75;2.50
66336;PMS1003;53139;45.576;5.304;2022-10-16T10:03:33;5.00;3.00;2.25
66336;PMS1003;53139;45.576;5.304;2022-10-16T10:06:37;4.50;3.00;2.00
66336;PMS1003;53139;45.576;5.304;2022-10-16T10:09:43;2.25;2.00;1.00
66336;PMS1003;53139;45.576;5.304;2022-10-16T10:12:45;3.00;3.00;2.00
66336;PMS1003;53139;45.576;5.304;2022-10-16T10:15:46;3.25;3.00;2.25
66336;PMS1003;53139;45.576;5.304;2022-10-16T10:18:46;1.75;1.75;1.00
66336;PMS1003;53139;45.576;5.304;2022-10-16T10:21:47;4.50;3.25;3.00
66336;PMS1003;53139;45.576;5.304;2022-10-16T10:24:55;2.00;2.00;1.50
66336;PMS1003;53139;45.576;5.304;2022-10-16T10:28:29;2.00;2.00;2.00
66336;PMS1003;53139;45.576;5.304;2022-10-16T10:32:35;3.50;3.00;2.25
66336;PMS1003;53139;45.576;5.304;2022-10-16T10:45:38;3.00;3.00;3.00
66336;PMS1003;53139;45.576;5.304;2022-10-16T10:52:00;3.00;2.00;1.50
66336;PMS1003;53139;45.576;5.304;2022-10-16T10:58:23;3.25;2.00;1.00
66336;PMS1003;53139;45.576;5.304;2022-10-16T11:05:03;3.00;3.00;2.50
66336;PMS1003;53139;45.576;5.304;2022-10-16T11:08:13;2.00;2.00;2.00
66336;PMS1003;53139;45.576;5.304;2022-10-16T11:11:20;5.50;3.00;2.75
66336;PMS1003;53139;45.576;5.304;2022-10-16T11:14:36;3.00;3.00;2.00
66336;PMS1003;53139;45.576;5.304;2022-10-16T11:17:50;4.75;3.00;3.00
66336;PMS1003;53139;45.576;5.304;2022-10-16T11:20:54;2.75;2.75;2.25
66336;PMS1003;53139;45.576;5.304;2022-10-16T11:24:04;1.50;1.50;1.00
66336;PMS1003;53139;45.576;5.304;2022-10-16T11:27:16;0.00;0.00;0.00
66336;PMS1003;53139;45.576;5.304;2022-10-16T11:30:39;6.50;3.75;3.00
66336;PMS1003;53139;45.576;5.304;2022-10-16T11:33:44;2.00;1.50;1.00
66336;PMS1003;53139;45.576;5.304;2022-10-16T11:39:58;3.50;3.00;2.25
66336;PMS1003;53139;45.576;5.304;2022-10-16T11:43:24;3.00;3.00;2.00
66336;PMS1003;53139;45.576;5.304;2022-10-16T11:46:27;3.00;3.00;3.00
66336;PMS1003;53139;45.576;5.304;2022-10-16T11:49:32;2.00;2.00;1.75
66336;PMS1003;53139;45.576;5.304;2022-10-16T11:52:38;3.00;1.75;1.00
66336;PMS1003;53139;45.576;5.304;2022-10-16T11:55:43;4.00;3.00;3.00
66336;PMS1003;53139;45.576;5.304;2022-10-16T11:58:52;1.75;1.25;1.00
66336;PMS1003;53139;45.576;5.304;2022-10-16T12:05:58;2.75;2.75;2.00
66336;PMS1003;53139;45.576;5.304;2022-10-16T12:09:22;3.50;2.00;1.75
66336;PMS1003;53139;45.576;5.304;2022-10-16T12:12:27;3.25;3.25;2.75
66336;PMS1003;53139;45.576;5.304;2022-10-16T12:15:38;3.00;3.00;2.00
66336;PMS1003;53139;45.576;5.304;2022-10-16T12:18:39;3.75;2.50;2.00
66336;PMS1003;53139;45.576;5.304;2022-10-16T12:21:41;3.00;3.00;3.00
66336;PMS1003;53139;45.576;5.304;2022-10-16T12:24:42;2.75;2.75;2.00
66336;PMS1003;53139;45.576;5.304;2022-10-16T12:27:43;2.00;2.00;1.75
66336;PMS1003;53139;45.576;5.304;2022-10-16T12:30:43;4.75;2.25;2.00
66336;PMS1003;53139;45.576;5.304;2022-10-16T12:33:57;2.00;2.00;2.00
66336;PMS1003;53139;45.576;5.304;2022-10-16T12:37:08;4.00;3.00;2.00
66336;PMS1003;53139;45.576;5.304;2022-10-16T12:40:28;4.25;4.00;3.00
66336;PMS1003;53139;45.576;5.304;2022-10-16T12:43:44;2.00;2.00;2.00
66336;PMS1003;53139;45.576;5.304;2022-10-16T12:46:46;3.00;1.75;1.75
66336;PMS1003;53139;45.576;5.304;2022-10-16T12:49:53;2.00;2.00;2.00
66336;PMS1003;53139;45.576;5.304;2022-10-16T12:52:54;3.00;2.25;2.00
66336;PMS1003;53139;45.576;5.304;2022-10-16T12:56:09;2.00;2.00;1.75
66336;PMS1003;53139;45.576;5.304;2022-10-16T13:13:40;3.00;3.00;3.00
66336;PMS1003;53139;45.576;5.304;2022-10-16T13:20:03;1.00;1.00;1.00
66336;PMS1003;53139;45.576;5.304;2022-10-16T13:26:23;2.50;2.00;1.00
66336;PMS1003;53139;45.576;5.304;2022-10-16T13:29:49;3.25;3.25;2.00
66336;PMS1003;53139;45.576;5.304;2022-10-16T13:32:58;5.50;3.75;2.75
66336;PMS1003;53139;45.576;5.304;2022-10-16T13:36:02;3.50;3.00;2.75
66336;PMS1003;53139;45.576;5.304;2022-10-16T13:39:09;4.75;3.50;3.00
66336;PMS1003;53139;45.576;5.304;2022-10-16T13:42:24;1.75;1.75;1.75
66336;PMS1003;53139;45.576;5.304;2022-10-16T13:45:27;4.50;4.50;4.00
66336;PMS1003;53139;45.576;5.304;2022-10-16T13:48:28;4.50;2.50;2.00
66336;PMS1003;53139;45.576;5.304;2022-10-16T13:51:30;3.00;3.00;2.00
66336;PMS1003;53139;45.576;5.304;2022-10-16T13:54:31;2.00;2.00;2.00
66336;PMS1003;53139;45.576;5.304;2022-10-16T13:57:32;5.00;3.25;3.00
66336;PMS1003;53139;45.576;5.304;2022-10-16T14:00:32;1.00;1.00;1.00
66336;PMS1003;53139;45.576;5.304;2022-10-16T14:03:33;2.25;2.25;2.00
66336;PMS1003;53139;45.576;5.304;2022-10-16T14:06:36;3.00;2.00;2.00
66336;PMS1003;53139;45.576;5.304;2022-10-16T14:09:40;6.00;4.25;3.75
66336;PMS1003;53139;45.576;5.304;2022-10-16T14:12:40;2.25;2.25;2.00
66336;PMS1003;53139;45.576;5.304;2022-10-16T14:15:45;5.25;3.00;2.00
66336;PMS1003;53139;45.576;5.304;2022-10-16T14:18:56;4.50;4.50;3.25
66336;PMS1003;53139;45.576;5.304;2022-10-16T14:21:57;3.75;3.75;3.00
66336;PMS1003;53139;45.576;5.304;2022-10-16T14:25:00;3.00;3.00;3.00
66336;PMS1003;53139;45.576;5.304;2022-10-16T14:28:15;4.75;4.75;4.00
66336;PMS1003;53139;45.576;5.304;2022-10-16T14:31:31;4.75;4.00;3.00
66336;PMS1003;53139;45.576;5.304;2022-10-16T14:34:34;3.75;3.75;3.00
66336;PMS1003;53139;45.576;5.304;2022-10-16T14:37:35;4.00;4.00;3.00
66336;PMS1003;53139;45.576;5.304;2022-10-16T14:40:36;5.50;4.00;3.00
66336;PMS1003;53139;45.576;5.304;2022-10-16T14:43:38;3.00;3.00;2.25
66336;PMS1003;53139;45.576;5.304;2022-10-16T14:46:41;4.75;3.50;3.25
66336;PMS1003;53139;45.576;5.304;2022-10-16T14:49:43;4.00;4.00;3.00
66336;PMS1003;53139;45.576;5.304;2022-10-16T14:52:44;5.00;3.00;3.00
66336;PMS1003;53139;45.576;5.304;2022-10-16T14:55:44;5.00;4.00;3.00
66336;PMS1003;53139;45.576;5.304;2022-10-16T14:58:45;3.25;3.00;2.50
66336;PMS1003;53139;45.576;5.304;2022-10-16T15:01:45;5.00;4.00;3.50
66336;PMS1003;53139;45.576;5.304;2022-10-16T15:04:47;4.75;4.75;4.00
66336;PMS1003;53139;45.576;5.304;2022-10-16T15:07:48;3.00;3.00;3.00
66336;PMS1003;53139;45.576;5.304;2022-10-16T15:10:49;4.25;4.25;3.25
66336;PMS1003;53139;45.576;5.304;2022-10-16T15:13:49;6.75;4.25;4.00
66336;PMS1003;53139;45.576;5.304;2022-10-16T15:16:49;3.50;3.00;2.25
66336;PMS1003;53139;45.576;5.304;2022-10-16T15:19:50;6.50;5.25;4.00
66336;PMS1003;53139;45.576;5.304;2022-10-16T15:22:52;6.00;4.00;3.00
66336;PMS1003;53139;45.576;5.304;2022-10-16T15:25:53;4.00;4.00;3.00
66336;PMS1003;53139;45.576;5.304;2022-10-16T15:28:55;3.75;3.25;3.00
66336;PMS1003;53139;45.576;5.304;2022-10-16T15:31:55;5.00;4.00;3.00
66336;PMS1003;53139;45.576;5.304;2022-10-16T15:34:56;5.00;3.75;3.00
66336;PMS1003;53139;45.576;5.304;2022-10-16T15:37:56;4.00;4.00;3.00
66336;PMS1003;53139;45.576;5.304;2022-10-16T15:40:57;4.25;4.25;3.00
66336;PMS1003;53139;45.576;5.304;2022-10-16T15:44:00;4.00;4.00;2.50
66336;PMS1003;53139;45.576;5.304;2022-10-16T15:47:01;4.75;4.00;3.50
66336;PMS1003;53139;45.576;5.304;2022-10-16T15:50:01;3.75;3.75;3.25
66336;PMS1003;53139;45.576;5.304;2022-10-16T15:53:02;3.00;3.00;3.00
66336;PMS1003;53139;45.576;5.304;2022-10-16T15:56:03;3.00;2.50;2.25
66336;PMS1003;53139;45.576;5.304;2022-10-16T15:59:04;2.75;2.00;2.00
66336;PMS1003;53139;45.576;5.304;2022-10-16T16:02:04;5.50;5.25;4.00
66336;PMS1003;53139;45.576;5.304;2022-10-16T16:05:05;2.00;2.00;1.25
66336;PMS1003;53139;45.576;5.304;2022-10-16T16:08:07;4.50;4.00;3.00
66336;PMS1003;53139;45.576;5.304;2022-10-16T16:11:09;3.00;3.00;2.75
66336;PMS1003;53139;45.576;5.304;2022-10-16T16:14:12;4.00;2.75;2.75
66336;PMS1003;53139;45.576;5.304;2022-10-16T16:17:13;4.75;3.75;2.75
66336;PMS1003;53139;45.576;5.304;2022-10-16T16:20:14;5.75;3.50;3.00
66336;PMS1003;53139;45.576;5.304;2022-10-16T16:23:15;5.25;3.75;3.00
66336;PMS1003;53139;45.576;5.304;2022-10-16T16:26:21;6.50;5.00;5.00
66336;PMS1003;53139;45.576;5.304;2022-10-16T16:29:27;4.00;3.00;2.50
66336;PMS1003;53139;45.576;5.304;2022-10-16T16:32:27;6.25;3.75;3.25
66336;PMS1003;53139;45.576;5.304;2022-10-16T16:35:27;4.50;3.75;3.75
66336;PMS1003;53139;45.576;5.304;2022-10-16T16:38:28;7.75;6.00;4.00
66336;PMS1003;53139;45.576;5.304;2022-10-16T16:41:29;3.00;3.00;2.00
66336;PMS1003;53139;45.576;5.304;2022-10-16T16:44:30;4.50;4.00;3.25
66336;PMS1003;53139;45.576;5.304;2022-10-16T16:47:30;2.75;2.75;2.75
66336;PMS1003;53139;45.576;5.304;2022-10-16T16:50:34;5.00;4.00;3.25
66336;PMS1003;53139;45.576;5.304;2022-10-16T16:53:36;5.50;4.50;3.25
66336;PMS1003;53139;45.576;5.304;2022-10-16T16:56:36;5.75;4.25;3.75
66336;PMS1003;53139;45.576;5.304;2022-10-16T16:59:37;5.00;5.00;3.50
66336;PMS1003;53139;45.576;5.304;2022-10-16T17:02:37;4.75;4.75;3.75
66336;PMS1003;53139;45.576;5.304;2022-10-16T17:05:43;5.00;5.00;4.50
66336;PMS1003;53139;45.576;5.304;2022-10-16T17:08:43;6.00;4.25;3.25
66336;PMS1003;53139;45.576;5.304;2022-10-16T17:11:43;4.50;4.50;4.00
66336;PMS1003;53139;45.576;5.304;2022-10-16T17:14:44;5.75;4.50;3.25
66336;PMS1003;53139;45.576;5.304;2022-10-16T17:17:44;4.25;4.25;4.00
66336;PMS1003;53139;45.576;5.304;2022-10-16T17:20:45;7.00;4.00;3.00
66336;PMS1003;53139;45.576;5.304;2022-10-16T17:23:45;5.75;5.00;4.00
66336;PMS1003;53139;45.576;5.304;2022-10-16T17:26:46;5.25;4.25;3.25
66336;PMS1003;53139;45.576;5.304;2022-10-16T17:29:51;6.00;5.00;4.75
66336;PMS1003;53139;45.576;5.304;2022-10-16T17:32:51;5.00;5.00;4.00
66336;PMS1003;53139;45.576;5.304;2022-10-16T17:35:51;5.00;5.00;4.00
66336;PMS1003;53139;45.576;5.304;2022-10-16T17:38:52;6.00;6.00;4.00
66336;PMS1003;53139;45.576;5.304;2022-10-16T17:41:52;5.75;5.75;4.00
66336;PMS1003;53139;45.576;5.304;2022-10-16T17:44:53;6.25;5.25;4.75
66336;PMS1003;53139;45.576;5.304;2022-10-16T17:47:53;5.50;5.25;4.00
66336;PMS1003;53139;45.576;5.304;2022-10-16T17:50:54;9.25;5.50;5.00
66336;PMS1003;53139;45.576;5.304;2022-10-16T17:53:55;6.75;5.50;5.00
66336;PMS1003;53139;45.576;5.304;2022-10-16T17:56:57;6.75;5.50;5.00
66336;PMS1003;53139;45.576;5.304;2022-10-16T17:59:58;6.50;6.00;5.00
66336;PMS1003;53139;45.576;5.304;2022-10-16T18:02:58;10.75;6.50;4.75
66336;PMS1003;53139;45.576;5.304;2022-10-16T18:06:00;6.00;5.00;4.00
66336;PMS1003;53139;45.576;5.304;2022-10-16T18:09:00;7.00;6.00;5.00
66336;PMS1003;53139;45.576;5.304;2022-10-16T18:12:02;6.00;6.00;6.00
66336;PMS1003;53139;45.576;5.304;2022-10-16T18:15:04;10.75;8.00;5.50
66336;PMS1003;53139;45.576;5.304;2022-10-16T18:18:05;8.25;7.25;5.25
66336;PMS1003;53139;45.576;5.304;2022-10-16T18:21:07;10.00;8.50;5.00
66336;PMS1003;53139;45.576;5.304;2022-10-16T18:24:10;7.00;6.50;5.25
66336;PMS1003;53139;45.576;5.304;2022-10-16T18:27:10;6.75;6.75;5.00
66336;PMS1003;53139;45.576;5.304;2022-10-16T18:30:10;5.25;4.50;4.50
66336;PMS1003;53139;45.576;5.304;2022-10-16T18:33:11;7.25;6.00;5.00
66336;PMS1003;53139;45.576;5.304;2022-10-16T18:36:11;7.75;6.75;4.25
66336;PMS1003;53139;45.576;5.304;2022-10-16T18:39:12;9.50;8.00;5.25
66336;PMS1003;53139;45.576;5.304;2022-10-16T18:42:12;7.00;7.00;4.75
66336;PMS1003;53139;45.576;5.304;2022-10-16T18:45:13;6.50;5.00;4.25
66336;PMS1003;53139;45.576;5.304;2022-10-16T18:48:13;11.00;7.25;6.00
66336;PMS1003;53139;45.576;5.304;2022-10-16T18:54:19;7.75;6.75;5.00
66336;PMS1003;53139;45.576;5.304;2022-10-16T18:57:19;6.25;6.00;5.00
66336;PMS1003;53139;45.576;5.304;2022-10-16T19:00:20;5.75;5.75;4.50
66336;PMS1003;53139;45.576;5.304;2022-10-16T19:03:20;5.75;5.25;4.25
66336;PMS1003;53139;45.576;5.304;2022-10-16T19:06:20;7.00;6.00;5.00
66336;PMS1003;53139;45.576;5.304;2022-10-16T19:09:21;6.00;5.75;3.75
66336;PMS1003;53139;45.576;5.304;2022-10-16T19:12:22;6.00;5.50;5.00
66336;PMS1003;53139;45.576;5.304;2022-10-16T19:15:23;6.25;5.75;4.50
66336;PMS1003;53139;45.576;5.304;2022-10-16T19:18:23;7.00;5.50;4.50
66336;PMS1003;53139;45.576;5.304;2022-10-16T19:21:24;8.75;7.75;5.50
66336;PMS1003;53139;45.576;5.304;2022-10-16T19:24:26;7.25;7.25;5.00
66336;PMS1003;53139;45.576;5.304;2022-10-16T19:27:26;6.75;6.00;4.50
66336;PMS1003;53139;45.576;5.304;2022-10-16T19:30:26;8.75;8.75;5.75
66336;PMS1003;53139;45.576;5.304;2022-10-16T19:33:27;9.50;6.25;5.50
66336;PMS1003;53139;45.576;5.304;2022-10-16T19:36:29;5.75;5.75;4.75